createdAt,value
2022-09-02T00:01:11.870Z,11.30
2022-09-02T00:03:38.835Z,11.30
2022-09-02T00:06:05.647Z,11.20
2022-09-02T00:08:32.433Z,11.20
2022-09-02T00:11:01.338Z,11.30
2022-09-02T00:13:28.745Z,11.20
2022-09-02T00:15:55.667Z,11.30
2022-09-02T00:18:24.800Z,11.20
2022-09-02T00:20:51.480Z,11.20
2022-09-02T00:23:18.217Z,11.20
2022-09-02T00:25:45.178Z,11.10
2022-09-02T00:28:13.097Z,11.00
2022-09-02T00:30:40.799Z,10.90
2022-09-02T00:33:11.023Z,10.80
2022-09-02T00:35:37.826Z,10.90
2022-09-02T00:38:08.122Z,10.80
2022-09-02T00:40:35.433Z,10.90
2022-09-02T00:43:05.059Z,10.90
2022-09-02T00:45:31.853Z,11.00
2022-09-02T00:47:58.509Z,11.00
2022-09-02T00:50:28.533Z,11.00
2022-09-02T00:52:59.074Z,11.00
2022-09-02T00:55:34.962Z,11.00
2022-09-02T00:58:04.953Z,11.00
2022-09-02T01:00:38.963Z,11.00
2022-09-02T01:03:07.189Z,11.00
2022-09-02T01:05:37.224Z,11.00
2022-09-02T01:08:09.741Z,11.00
2022-09-02T01:10:36.462Z,11.00
2022-09-02T01:13:08.429Z,10.90
2022-09-02T01:15:37.375Z,10.90
2022-09-02T01:18:07.754Z,10.90
2022-09-02T01:20:34.490Z,10.90
2022-09-02T01:23:02.325Z,10.90
2022-09-02T01:25:31.538Z,10.90
2022-09-02T01:28:06.364Z,10.90
2022-09-02T01:30:33.579Z,10.90
2022-09-02T01:33:00.251Z,10.80
2022-09-02T01:35:27.959Z,10.70
2022-09-02T01:37:56.347Z,10.70
2022-09-02T01:40:23.717Z,10.70
2022-09-02T01:42:53.388Z,10.70
2022-09-02T01:45:20.666Z,10.50
2022-09-02T01:47:47.687Z,10.70
2022-09-02T01:50:14.406Z,10.70
2022-09-02T01:52:41.535Z,10.70
2022-09-02T01:55:08.412Z,10.70
2022-09-02T01:57:35.274Z,10.60
2022-09-02T02:00:02.058Z,10.50
2022-09-02T02:02:29.594Z,10.50
2022-09-02T02:04:56.338Z,10.40
2022-09-02T02:07:23.874Z,10.40
2022-09-02T02:09:50.835Z,10.30
2022-09-02T02:12:17.920Z,10.30
2022-09-02T02:14:44.611Z,10.30
2022-09-02T02:17:11.335Z,10.40
2022-09-02T02:19:38.221Z,10.40
2022-09-02T02:22:07.109Z,10.40
2022-09-02T02:24:33.820Z,10.40
2022-09-02T02:27:00.475Z,10.30
2022-09-02T02:29:27.307Z,10.20
2022-09-02T02:31:54.043Z,10.30
2022-09-02T02:34:21.037Z,10.30
2022-09-02T02:36:47.733Z,10.30
2022-09-02T02:39:14.444Z,10.30
2022-09-02T02:41:44.746Z,10.30
2022-09-02T02:44:11.847Z,10.30
2022-09-02T02:46:38.588Z,10.20
2022-09-02T02:49:05.991Z,10.20
2022-09-02T02:51:33.352Z,10.30
2022-09-02T02:54:01.509Z,10.30
2022-09-02T02:56:29.345Z,10.30
2022-09-02T02:58:56.599Z,10.30
2022-09-02T03:01:23.520Z,10.30
2022-09-02T03:03:52.172Z,10.30
2022-09-02T03:06:19.491Z,10.20
2022-09-02T03:08:53.575Z,10.20
2022-09-02T03:11:22.493Z,10.10
2022-09-02T03:13:50.433Z,10.20
2022-09-02T03:16:19.633Z,10.10
2022-09-02T03:18:47.054Z,10.00
2022-09-02T03:21:15.989Z,10.00
2022-09-02T03:23:43.833Z,10.00
2022-09-02T03:26:15.599Z,10.00
2022-09-02T03:28:45.824Z,10.00
2022-09-02T03:31:17.653Z,9.90
2022-09-02T03:33:44.366Z,10.00
2022-09-02T03:36:28.100Z,10.00
2022-09-02T03:38:55.199Z,10.00
2022-09-02T03:41:22.362Z,10.10
2022-09-02T03:43:49.244Z,10.10
2022-09-02T03:46:16.131Z,10.10
2022-09-02T03:48:42.822Z,10.00
2022-09-02T03:51:09.495Z,10.00
2022-09-02T03:53:36.696Z,10.00
2022-09-02T03:56:07.784Z,10.00
2022-09-02T03:58:35.292Z,10.00
2022-09-02T04:01:02.351Z,10.00
2022-09-02T04:03:29.009Z,10.00
2022-09-02T04:05:55.998Z,9.90
2022-09-02T04:08:23.106Z,9.90
2022-09-02T04:10:49.822Z,10.00
2022-09-02T04:13:17.143Z,9.90
2022-09-02T04:15:44.981Z,10.00
2022-09-02T04:18:12.477Z,10.00
2022-09-02T04:20:39.736Z,9.90
2022-09-02T04:23:09.282Z,9.90
2022-09-02T04:25:39.092Z,9.90
2022-09-02T04:28:05.833Z,9.80
2022-09-02T04:30:32.573Z,9.90
2022-09-02T04:32:59.341Z,9.90
2022-09-02T04:35:26.000Z,9.90
2022-09-02T04:37:52.920Z,10.00
2022-09-02T04:40:19.665Z,9.90
2022-09-02T04:42:46.775Z,9.90
2022-09-02T04:45:13.452Z,9.90
2022-09-02T04:47:40.187Z,9.90
2022-09-02T04:50:07.758Z,10.00
2022-09-02T04:52:34.454Z,10.00
2022-09-02T04:55:01.089Z,10.00
2022-09-02T04:57:27.945Z,10.10
2022-09-02T04:59:54.655Z,10.20
2022-09-02T05:02:21.512Z,10.20
2022-09-02T05:04:48.303Z,10.30
2022-09-02T05:07:16.087Z,10.40
2022-09-02T05:09:42.780Z,10.30
2022-09-02T05:12:09.826Z,10.30
2022-09-02T05:14:36.801Z,10.30
2022-09-02T05:17:07.650Z,10.50
2022-09-02T05:19:34.706Z,10.50
2022-09-02T05:22:01.923Z,10.60
2022-09-02T05:24:29.646Z,10.70
2022-09-02T05:26:56.542Z,10.80
2022-09-02T05:29:24.007Z,10.90
2022-09-02T05:31:50.929Z,10.80
2022-09-02T05:34:18.024Z,10.80
2022-09-02T05:36:45.110Z,10.80
2022-09-02T05:39:11.861Z,10.90
2022-09-02T05:41:38.611Z,11.00
2022-09-02T05:44:06.647Z,11.00
2022-09-02T05:46:34.100Z,11.20
2022-09-02T05:49:07.061Z,11.40
2022-09-02T05:51:37.436Z,11.40
2022-09-02T05:54:04.529Z,11.60
2022-09-02T05:56:31.228Z,11.70
2022-09-02T05:58:58.985Z,11.80
2022-09-02T06:01:29.555Z,11.90
2022-09-02T06:03:57.532Z,11.90
2022-09-02T06:06:24.333Z,12.00
2022-09-02T06:08:51.177Z,12.10
2022-09-02T06:11:18.394Z,12.20
2022-09-02T06:13:45.859Z,12.30
2022-09-02T06:16:16.915Z,12.40
2022-09-02T06:18:46.247Z,12.40
2022-09-02T06:21:14.113Z,12.50
2022-09-02T06:23:41.204Z,12.70
2022-09-02T06:26:09.285Z,12.80
2022-09-02T06:28:35.956Z,12.90
2022-09-02T06:31:10.433Z,12.90
2022-09-02T06:33:38.104Z,13.00
2022-09-02T06:36:09.020Z,13.10
2022-09-02T06:38:42.621Z,13.20
2022-09-02T06:41:13.528Z,13.20
2022-09-02T06:43:42.793Z,13.30
2022-09-02T06:46:14.671Z,13.40
2022-09-02T06:48:41.698Z,13.40
2022-09-02T06:51:08.649Z,13.50
2022-09-02T06:53:35.349Z,13.60
2022-09-02T06:56:02.075Z,13.70
2022-09-02T06:58:28.747Z,13.80
2022-09-02T07:00:55.508Z,13.80
2022-09-02T07:03:41.056Z,13.90
2022-09-02T07:06:11.484Z,14.00
2022-09-02T07:08:39.315Z,14.00
2022-09-02T07:11:06.895Z,14.20
2022-09-02T07:13:34.517Z,14.30
2022-09-02T07:16:01.626Z,14.40
2022-09-02T07:18:28.334Z,14.50
2022-09-02T07:20:55.295Z,14.50
2022-09-02T07:23:22.007Z,14.60
2022-09-02T07:25:48.712Z,14.70
2022-09-02T07:28:15.377Z,14.70
2022-09-02T07:30:43.001Z,14.70
2022-09-02T07:33:12.129Z,14.70
2022-09-02T07:35:39.027Z,14.70
2022-09-02T07:38:05.713Z,14.80
2022-09-02T07:40:32.679Z,14.90
2022-09-02T07:42:59.479Z,15.00
2022-09-02T07:45:26.203Z,15.00
2022-09-02T07:47:53.564Z,15.10
2022-09-02T07:50:22.079Z,15.10
2022-09-02T07:52:50.531Z,15.20
2022-09-02T07:55:17.354Z,15.40
2022-09-02T07:57:44.064Z,15.40
2022-09-02T08:00:12.382Z,15.40
2022-09-02T08:02:39.186Z,15.50
2022-09-02T08:05:06.182Z,15.70
2022-09-02T08:07:32.888Z,15.70
2022-09-02T08:10:01.121Z,15.80
2022-09-02T08:12:28.419Z,16.00
2022-09-02T08:14:58.030Z,16.00
2022-09-02T08:17:24.887Z,16.10
2022-09-02T08:19:51.623Z,16.10
2022-09-02T08:22:18.353Z,16.20
2022-09-02T08:24:44.993Z,16.20
2022-09-02T08:27:11.677Z,16.30
2022-09-02T08:29:38.475Z,16.30
2022-09-02T08:32:05.801Z,16.40
2022-09-02T08:34:32.563Z,16.40
2022-09-02T08:36:59.221Z,16.50
2022-09-02T08:39:26.141Z,16.60
2022-09-02T08:42:08.978Z,16.60
2022-09-02T08:44:37.522Z,16.80
2022-09-02T08:47:06.487Z,16.80
2022-09-02T08:49:40.682Z,16.90
2022-09-02T08:52:07.738Z,16.90
2022-09-02T08:54:40.505Z,16.90
2022-09-02T08:57:07.916Z,16.90
2022-09-02T08:59:35.582Z,16.90
2022-09-02T09:02:18.117Z,16.90
2022-09-02T09:04:55.419Z,16.90
2022-09-02T09:07:25.073Z,16.90
2022-09-02T09:09:51.716Z,17.10
2022-09-02T09:12:18.491Z,17.10
2022-09-02T09:15:20.758Z,17.10
2022-09-02T09:17:58.191Z,17.10
2022-09-02T09:20:26.966Z,17.20
2022-09-02T09:22:58.734Z,17.30
2022-09-02T09:25:29.832Z,17.30
2022-09-02T09:28:00.195Z,17.30
2022-09-02T09:30:27.494Z,17.40
2022-09-02T09:32:55.876Z,17.50
2022-09-02T09:35:23.419Z,17.50
2022-09-02T09:37:51.042Z,17.60
2022-09-02T09:40:23.349Z,17.60
2022-09-02T09:43:15.198Z,17.60
2022-09-02T09:45:46.672Z,17.50
2022-09-02T09:48:16.571Z,17.40
2022-09-02T09:50:43.955Z,17.30
2022-09-02T09:53:21.256Z,17.10
2022-09-02T09:55:52.872Z,17.10
2022-09-02T09:58:19.995Z,17.10
2022-09-02T10:00:46.746Z,17.10
2022-09-02T10:03:23.201Z,17.10
2022-09-02T10:05:53.179Z,17.30
2022-09-02T10:08:22.771Z,17.50
2022-09-02T10:11:00.370Z,17.70
2022-09-02T10:13:28.984Z,17.80
2022-09-02T10:16:01.476Z,17.90
2022-09-02T10:18:40.466Z,18.10
2022-09-02T10:21:19.171Z,18.20
2022-09-02T10:24:04.252Z,18.20
2022-09-02T10:26:38.955Z,18.20
2022-09-02T10:29:25.561Z,18.30
2022-09-02T10:31:52.406Z,18.30
2022-09-02T10:34:33.048Z,18.40
2022-09-02T10:36:59.683Z,18.50
2022-09-02T10:39:46.659Z,18.50
2022-09-02T10:42:20.051Z,18.50
2022-09-02T10:44:58.790Z,18.60
2022-09-02T10:47:38.715Z,18.70
2022-09-02T10:50:17.004Z,18.80
2022-09-02T10:52:43.682Z,18.90
2022-09-02T10:55:29.089Z,18.80
2022-09-02T10:58:00.213Z,18.80
2022-09-02T11:00:27.858Z,18.80
2022-09-02T11:03:03.084Z,18.90
2022-09-02T11:05:35.063Z,18.80
2022-09-02T11:08:10.013Z,18.60
2022-09-02T11:10:55.630Z,18.60
2022-09-02T11:13:35.777Z,18.60
2022-09-02T11:16:05.337Z,18.60
2022-09-02T11:18:43.766Z,18.60
2022-09-02T11:21:14.495Z,18.60
2022-09-02T11:23:43.270Z,18.60
2022-09-02T11:26:17.765Z,18.60
2022-09-02T11:28:50.866Z,18.60
2022-09-02T11:31:38.905Z,18.50
2022-09-02T11:34:19.026Z,18.50
2022-09-02T11:36:45.839Z,18.50
2022-09-02T11:39:25.754Z,18.40
2022-09-02T11:42:23.023Z,18.30
2022-09-02T11:44:52.704Z,18.20
2022-09-02T11:47:25.753Z,18.20
2022-09-02T11:49:55.233Z,18.10
2022-09-02T11:52:39.291Z,18.20
2022-09-02T11:55:16.803Z,18.20
2022-09-02T11:57:44.143Z,18.40
2022-09-02T12:00:25.719Z,18.50
2022-09-02T12:02:58.923Z,18.50
2022-09-02T12:05:32.270Z,18.70
2022-09-02T12:08:11.969Z,18.60
2022-09-02T12:10:39.413Z,18.70
2022-09-02T12:13:09.519Z,18.80
2022-09-02T12:15:36.581Z,18.90
2022-09-02T12:18:11.346Z,19.00
2022-09-02T12:20:38.829Z,19.10
2022-09-02T12:23:06.862Z,19.20
2022-09-02T12:25:38.221Z,19.30
2022-09-02T12:28:11.184Z,19.30
2022-09-02T12:30:55.490Z,19.40
2022-09-02T12:33:32.588Z,19.40
2022-09-02T12:35:59.861Z,19.50
2022-09-02T12:38:36.950Z,19.60
2022-09-02T12:41:07.857Z,19.60
2022-09-02T12:43:37.565Z,19.70
2022-09-02T12:46:11.848Z,19.80
2022-09-02T12:48:45.241Z,19.70
2022-09-02T12:51:31.833Z,19.70
2022-09-02T12:54:02.155Z,19.60
2022-09-02T12:56:28.870Z,19.50
2022-09-02T12:59:00.168Z,19.60
2022-09-02T13:01:41.549Z,19.60
2022-09-02T13:04:23.393Z,19.60
2022-09-02T13:07:04.898Z,19.70
2022-09-02T13:09:31.519Z,19.80
2022-09-02T13:11:58.182Z,19.80
2022-09-02T13:14:33.998Z,19.80
2022-09-02T13:17:35.614Z,19.80
2022-09-02T13:20:09.075Z,19.70
2022-09-02T13:22:55.410Z,19.60
2022-09-02T13:25:25.099Z,19.50
2022-09-02T13:28:10.478Z,19.20
2022-09-02T13:30:55.936Z,19.10
2022-09-02T13:33:22.787Z,19.20
2022-09-02T13:35:54.059Z,19.20
2022-09-02T13:38:24.525Z,19.20
2022-09-02T13:40:51.414Z,19.40
2022-09-02T13:43:19.402Z,19.80
2022-09-02T13:45:47.004Z,20.00
2022-09-02T13:48:18.857Z,20.10
2022-09-02T13:50:46.996Z,20.20
2022-09-02T13:56:25.085Z,20.10
2022-09-02T13:58:53.301Z,20.00
2022-09-02T14:01:34.408Z,20.00
2022-09-02T14:04:06.365Z,20.00
2022-09-02T14:06:38.483Z,20.00
2022-09-02T14:09:07.346Z,19.80
2022-09-02T14:11:38.999Z,19.70
2022-09-02T14:14:05.710Z,19.60
2022-09-02T14:16:34.172Z,19.60
2022-09-02T14:19:05.086Z,19.60
2022-09-02T14:21:32.315Z,19.60
2022-09-02T14:23:59.050Z,19.60
2022-09-02T14:26:46.030Z,19.50
2022-09-02T14:29:14.441Z,19.50
2022-09-02T14:31:41.289Z,19.50
2022-09-02T14:34:26.714Z,19.50
2022-09-02T14:36:53.351Z,19.60
2022-09-02T14:39:20.089Z,19.70
2022-09-02T14:41:54.422Z,19.80
2022-09-02T14:44:34.640Z,19.90
2022-09-02T14:47:05.828Z,19.90
2022-09-02T14:49:35.294Z,19.80
2022-09-02T14:52:33.533Z,19.70
2022-09-02T14:55:00.652Z,19.70
2022-09-02T14:57:28.636Z,19.70
2022-09-02T15:00:00.619Z,19.60
2022-09-02T15:02:27.271Z,19.60
2022-09-02T15:04:54.327Z,19.60
2022-09-02T15:07:21.386Z,19.40
2022-09-02T15:09:51.462Z,19.30
2022-09-02T15:12:20.112Z,19.20
2022-09-02T15:14:47.253Z,19.20
2022-09-02T15:17:15.058Z,19.20
2022-09-02T15:19:41.731Z,19.00
2022-09-02T15:22:08.438Z,18.90
2022-09-02T15:24:35.353Z,18.80
2022-09-02T15:27:02.109Z,18.70
2022-09-02T15:29:29.162Z,18.80
2022-09-02T15:31:55.946Z,18.80
2022-09-02T15:34:26.635Z,18.80
2022-09-02T15:36:55.322Z,18.80
2022-09-02T15:39:22.952Z,18.80
2022-09-02T15:41:50.257Z,18.80
2022-09-02T15:44:17.629Z,18.80
2022-09-02T15:46:51.876Z,18.80
2022-09-02T15:49:19.345Z,18.80
2022-09-02T15:51:46.657Z,18.90
2022-09-02T15:54:16.653Z,18.90
2022-09-02T15:56:52.693Z,18.90
2022-09-02T15:59:21.292Z,18.90
2022-09-02T16:01:49.284Z,18.80
2022-09-02T16:04:16.006Z,18.70
2022-09-02T16:06:44.278Z,18.70
2022-09-02T16:09:39.794Z,18.70
2022-09-02T16:12:06.636Z,18.70
2022-09-02T16:14:34.190Z,18.70
2022-09-02T16:17:00.997Z,18.80
2022-09-02T16:19:30.347Z,18.90
2022-09-02T16:21:57.772Z,19.00
2022-09-02T16:24:24.651Z,19.00
2022-09-02T16:26:51.873Z,19.10
2022-09-02T16:29:19.499Z,19.00
2022-09-02T16:32:01.790Z,18.90
2022-09-02T16:34:33.902Z,19.00
2022-09-02T16:37:00.865Z,18.90
2022-09-02T16:39:27.657Z,18.90
2022-09-02T16:41:54.565Z,18.80
2022-09-02T16:44:21.995Z,18.80
2022-09-02T16:46:49.796Z,18.90
2022-09-02T16:49:18.453Z,18.80
2022-09-02T16:51:46.232Z,18.70
2022-09-02T16:54:17.793Z,18.70
2022-09-02T16:56:48.362Z,18.50
2022-09-02T16:59:15.289Z,18.40
2022-09-02T17:01:42.065Z,18.30
2022-09-02T17:04:08.978Z,18.20
2022-09-02T17:06:39.894Z,18.10
2022-09-02T17:09:13.509Z,18.10
2022-09-02T17:11:41.421Z,18.00
2022-09-02T17:14:09.302Z,17.80
2022-09-02T17:16:40.411Z,17.70
2022-09-02T17:19:07.665Z,17.60
2022-09-02T17:21:34.336Z,17.60
2022-09-02T17:24:01.557Z,17.50
2022-09-02T17:26:30.226Z,17.40
2022-09-02T17:28:57.664Z,17.30
2022-09-02T17:31:25.842Z,17.20
2022-09-02T17:33:53.698Z,17.10
2022-09-02T17:36:20.848Z,17.00
2022-09-02T17:38:47.703Z,16.90
2022-09-02T17:41:33.522Z,16.80
2022-09-02T17:44:01.153Z,16.70
2022-09-02T17:46:27.876Z,16.60
2022-09-02T17:49:15.717Z,16.50
2022-09-02T17:51:43.481Z,16.50
2022-09-02T17:54:10.734Z,16.40
2022-09-02T17:56:56.314Z,16.30
2022-09-02T17:59:41.701Z,16.20
2022-09-02T18:02:26.870Z,16.20
2022-09-02T18:04:59.263Z,16.10
2022-09-02T18:07:29.116Z,16.10
2022-09-02T18:09:55.967Z,16.00
2022-09-02T18:12:22.753Z,15.90
2022-09-02T18:14:55.325Z,15.80
2022-09-02T18:17:26.251Z,15.80
2022-09-02T18:19:56.108Z,15.60
2022-09-02T18:22:28.540Z,15.60
2022-09-02T18:25:15.114Z,15.60
2022-09-02T18:27:45.201Z,15.50
2022-09-02T18:30:15.060Z,15.40
2022-09-02T18:32:41.835Z,15.30
2022-09-02T18:35:24.438Z,15.30
2022-09-02T18:37:54.464Z,15.20
2022-09-02T18:40:27.467Z,15.10
2022-09-02T18:43:07.810Z,15.00
2022-09-02T18:45:48.971Z,15.00
2022-09-02T18:48:19.281Z,14.90
2022-09-02T18:51:07.011Z,14.80
2022-09-02T18:53:36.884Z,14.80
2022-09-02T18:56:08.995Z,14.70
2022-09-02T18:58:38.649Z,14.70
2022-09-02T19:01:14.983Z,14.70
2022-09-02T19:03:41.842Z,14.60
2022-09-02T19:06:12.302Z,14.60
2022-09-02T19:08:39.475Z,14.50
2022-09-02T19:11:08.866Z,14.60
2022-09-02T19:13:43.424Z,14.50
2022-09-02T19:16:10.218Z,14.40
2022-09-02T19:18:36.881Z,14.30
2022-09-02T19:21:03.885Z,14.20
2022-09-02T19:23:31.047Z,14.30
2022-09-02T19:25:59.359Z,14.30
2022-09-02T19:28:26.742Z,14.30
2022-09-02T19:30:57.397Z,14.20
2022-09-02T19:33:24.213Z,14.10
2022-09-02T19:35:50.991Z,14.00
2022-09-02T19:38:17.813Z,13.90
2022-09-02T19:40:45.519Z,13.90
2022-09-02T19:43:13.785Z,13.90
2022-09-02T19:45:40.507Z,13.90
2022-09-02T19:48:09.860Z,13.90
2022-09-02T19:50:37.981Z,13.90
2022-09-02T19:53:05.062Z,13.90
2022-09-02T19:55:33.785Z,13.70
2022-09-02T19:58:00.793Z,13.70
2022-09-02T20:00:28.155Z,13.60
2022-09-02T20:02:55.173Z,13.50
2022-09-02T20:05:24.482Z,13.50
2022-09-02T20:07:52.539Z,13.40
2022-09-02T20:10:25.193Z,13.30
2022-09-02T20:12:55.701Z,13.20
2022-09-02T20:15:22.811Z,13.10
2022-09-02T20:17:51.022Z,13.00
2022-09-02T20:20:20.273Z,12.90
2022-09-02T20:22:47.877Z,12.90
2022-09-02T20:25:15.496Z,13.00
2022-09-02T20:28:08.974Z,13.00
2022-09-02T20:30:37.571Z,13.00
2022-09-02T20:33:15.446Z,13.00
2022-09-02T20:35:47.852Z,12.90
2022-09-02T20:38:27.648Z,12.80
2022-09-02T20:41:14.350Z,12.70
2022-09-02T20:43:47.408Z,12.70
2022-09-02T20:46:29.924Z,12.70
2022-09-02T20:49:08.255Z,12.60
2022-09-02T20:51:59.306Z,12.50
2022-09-02T20:54:39.371Z,12.50
2022-09-02T20:57:26.286Z,12.40
2022-09-02T21:00:21.979Z,12.50
2022-09-02T21:02:51.289Z,12.40
2022-09-02T21:05:39.881Z,12.40
2022-09-02T21:08:24.558Z,12.30
2022-09-02T21:10:52.544Z,12.30
2022-09-02T21:13:34.781Z,12.10
2022-09-02T21:16:07.174Z,12.10
2022-09-02T21:18:38.264Z,12.10
2022-09-02T21:21:10.790Z,12.00
2022-09-02T21:23:43.297Z,12.00
2022-09-02T21:26:17.182Z,12.00
2022-09-02T21:28:46.530Z,12.00
2022-09-02T21:31:17.657Z,12.00
2022-09-02T21:33:45.483Z,12.00
2022-09-02T21:36:23.174Z,11.90
2022-09-02T21:38:51.152Z,11.80
2022-09-02T21:41:28.896Z,11.80
2022-09-02T21:43:59.056Z,11.70
2022-09-02T21:46:26.456Z,11.70
2022-09-02T21:49:06.500Z,11.60
2022-09-02T21:51:37.079Z,11.60
2022-09-02T21:54:11.361Z,11.50
2022-09-02T21:56:38.065Z,11.50
2022-09-02T21:59:14.439Z,11.50
2022-09-02T22:01:47.441Z,11.50
2022-09-02T22:04:24.991Z,11.40
2022-09-02T22:06:59.666Z,11.40
2022-09-02T22:09:31.592Z,11.40
2022-09-02T22:12:04.468Z,11.40
2022-09-02T22:14:39.524Z,11.30
2022-09-02T22:17:14.921Z,11.30
2022-09-02T22:19:42.617Z,11.30
2022-09-02T22:22:15.042Z,11.30
2022-09-02T22:24:41.770Z,11.30
2022-09-02T22:27:14.031Z,11.30
2022-09-02T22:29:44.145Z,11.30
2022-09-02T22:32:13.676Z,11.40
2022-09-02T22:34:43.612Z,11.50
2022-09-02T22:37:12.476Z,11.60
2022-09-02T22:39:59.002Z,11.60
2022-09-02T22:42:31.570Z,11.70
2022-09-02T22:45:28.513Z,11.70
2022-09-02T22:48:43.137Z,11.70
2022-09-02T22:51:38.701Z,11.80
2022-09-02T22:54:05.545Z,11.80
2022-09-02T22:56:50.236Z,11.80
2022-09-02T22:59:41.790Z,11.80
2022-09-02T23:02:14.043Z,11.90
2022-09-02T23:04:47.971Z,11.90
2022-09-02T23:07:14.735Z,11.90
2022-09-02T23:09:41.488Z,11.90
2022-09-02T23:12:14.342Z,12.00
2022-09-02T23:14:51.632Z,12.00
2022-09-02T23:17:39.267Z,12.00
2022-09-02T23:20:10.641Z,12.00
2022-09-02T23:22:43.317Z,12.10
2022-09-02T23:25:17.349Z,12.10
2022-09-02T23:28:04.679Z,12.20
2022-09-02T23:30:31.649Z,12.20
2022-09-02T23:33:17.866Z,12.20
2022-09-02T23:35:48.262Z,12.20
2022-09-02T23:38:16.122Z,12.30
2022-09-02T23:40:44.762Z,12.30
2022-09-02T23:43:16.083Z,12.20
2022-09-02T23:45:42.753Z,12.20
2022-09-02T23:48:29.755Z,12.20
2022-09-02T23:50:59.269Z,12.20
2022-09-02T23:53:48.925Z,12.20
2022-09-02T23:56:29.816Z,12.30
2022-09-02T23:59:11.701Z,12.30
